createdAt,value
2019-03-26T00:01:58.203Z,7.67
2019-03-26T00:08:05.059Z,7.68
2019-03-26T00:14:12.571Z,7.73
2019-03-26T00:20:19.397Z,7.65
2019-03-26T00:26:26.008Z,7.65
2019-03-26T00:32:32.731Z,7.64
2019-03-26T00:38:39.454Z,7.70
2019-03-26T00:44:46.023Z,7.72
2019-03-26T00:50:52.802Z,7.75
2019-03-26T00:56:59.715Z,7.64
2019-03-26T01:03:07.356Z,7.60
2019-03-26T01:09:14.055Z,7.61
2019-03-26T01:15:20.662Z,7.61
2019-03-26T01:21:27.429Z,7.52
2019-03-26T01:27:34.256Z,7.51
2019-03-26T01:33:40.776Z,7.46
2019-03-26T01:39:47.351Z,7.44
2019-03-26T01:45:54.104Z,7.32
2019-03-26T01:52:00.908Z,7.41
2019-03-26T01:58:07.772Z,7.46
2019-03-26T02:04:14.428Z,7.51
2019-03-26T02:10:21.070Z,7.50
2019-03-26T02:16:27.919Z,7.59
2019-03-26T02:22:34.567Z,7.54
2019-03-26T02:28:41.142Z,7.42
2019-03-26T02:34:48.024Z,7.44
2019-03-26T02:40:54.548Z,7.38
2019-03-26T02:47:01.165Z,7.33
2019-03-26T02:53:09.046Z,7.46
2019-03-26T02:59:15.667Z,7.39
2019-03-26T03:05:35.196Z,7.41
2019-03-26T03:11:30.604Z,7.40
2019-03-26T03:17:37.146Z,7.34
2019-03-26T03:23:43.663Z,7.37
2019-03-26T03:29:50.211Z,7.29
2019-03-26T03:35:56.760Z,7.34
2019-03-26T03:42:03.470Z,7.39
2019-03-26T03:48:10.690Z,7.35
2019-03-26T03:54:17.881Z,7.29
2019-03-26T04:00:41.310Z,7.14
2019-03-26T04:06:47.925Z,7.11
2019-03-26T04:12:54.464Z,7.21
2019-03-26T04:19:01.005Z,7.30
2019-03-26T04:25:07.563Z,7.32
2019-03-26T04:31:14.053Z,7.31
2019-03-26T04:37:20.683Z,7.26
2019-03-26T04:43:27.277Z,7.30
2019-03-26T04:49:33.855Z,7.29
2019-03-26T04:55:40.409Z,7.24
2019-03-26T05:01:46.891Z,7.24
2019-03-26T05:07:56.755Z,7.25
2019-03-26T05:14:03.312Z,7.22
2019-03-26T05:20:09.892Z,7.21
2019-03-26T05:26:16.420Z,7.26
2019-03-26T05:32:23.007Z,7.39
2019-03-26T05:38:29.621Z,7.39
2019-03-26T05:44:37.458Z,7.50
2019-03-26T05:50:43.990Z,7.52
2019-03-26T05:56:50.536Z,7.57
2019-03-26T06:02:57.081Z,7.64
2019-03-26T06:09:03.970Z,7.65
2019-03-26T06:15:11.372Z,7.58
2019-03-26T06:21:17.867Z,7.51
2019-03-26T06:27:24.403Z,7.43
2019-03-26T06:33:31.000Z,7.40
2019-03-26T06:39:37.540Z,7.56
2019-03-26T06:45:44.086Z,7.69
2019-03-26T06:51:50.681Z,7.77
2019-03-26T06:57:57.315Z,7.78
2019-03-26T07:04:04.062Z,7.76
2019-03-26T07:10:11.329Z,7.94
2019-03-26T07:16:17.829Z,8.01
2019-03-26T07:22:24.380Z,8.21
2019-03-26T07:28:30.945Z,8.37
2019-03-26T07:34:37.637Z,8.50
2019-03-26T07:40:44.276Z,8.51
2019-03-26T07:46:50.945Z,8.46
2019-03-26T07:52:58.017Z,8.25
2019-03-26T07:59:04.562Z,8.33
2019-03-26T08:05:12.077Z,8.30
2019-03-26T08:11:18.677Z,8.04
2019-03-26T08:17:25.264Z,7.85
2019-03-26T08:23:32.112Z,7.89
2019-03-26T08:29:38.737Z,8.04
2019-03-26T08:35:45.339Z,8.24
2019-03-26T08:41:51.970Z,8.46
2019-03-26T08:47:58.494Z,9.01
2019-03-26T08:54:05.155Z,9.17
2019-03-26T09:00:12.361Z,9.09
2019-03-26T09:06:19.031Z,8.89
2019-03-26T09:12:25.599Z,9.05
2019-03-26T09:18:32.118Z,9.15
2019-03-26T09:24:38.661Z,9.20
2019-03-26T09:30:45.238Z,9.17
2019-03-26T09:36:51.886Z,9.12
2019-03-26T09:42:58.441Z,9.04
2019-03-26T09:49:05.078Z,9.00
2019-03-26T09:55:12.196Z,8.73
2019-03-26T10:01:18.700Z,8.61
2019-03-26T10:07:25.214Z,8.48
2019-03-26T10:13:31.938Z,8.17
2019-03-26T10:19:38.570Z,8.30
2019-03-26T10:25:45.079Z,8.53
2019-03-26T10:31:51.917Z,8.89
2019-03-26T10:37:58.685Z,9.11
2019-03-26T10:44:05.290Z,9.47
2019-03-26T10:50:11.984Z,9.85
2019-03-26T10:56:18.531Z,10.09
2019-03-26T11:02:25.056Z,9.82
2019-03-26T11:08:31.630Z,10.10
2019-03-26T11:14:38.226Z,10.47
2019-03-26T11:20:44.781Z,10.63
2019-03-26T11:26:51.702Z,10.46
2019-03-26T11:32:58.391Z,10.48
2019-03-26T11:39:06.242Z,10.36
2019-03-26T11:45:13.884Z,10.23
2019-03-26T11:51:20.408Z,10.38
2019-03-26T11:57:26.985Z,10.45
2019-03-26T12:03:33.543Z,10.33
2019-03-26T12:09:46.110Z,10.11
2019-03-26T12:15:48.425Z,10.37
2019-03-26T12:21:54.961Z,10.69
2019-03-26T12:28:01.571Z,10.87
2019-03-26T12:34:08.341Z,10.62
2019-03-26T12:40:15.232Z,10.58
2019-03-26T12:46:21.779Z,10.40
2019-03-26T12:52:30.134Z,10.37
2019-03-26T12:58:36.894Z,10.31
2019-03-26T13:04:43.406Z,10.06
2019-03-26T13:10:53.845Z,9.90
2019-03-26T13:16:58.568Z,9.98
2019-03-26T13:23:05.327Z,10.15
2019-03-26T13:29:11.892Z,10.04
2019-03-26T13:35:18.655Z,10.25
2019-03-26T13:41:25.163Z,10.42
2019-03-26T13:47:31.786Z,10.56
2019-03-26T13:53:38.377Z,10.59
2019-03-26T13:59:44.955Z,10.45
2019-03-26T14:05:51.553Z,10.30
2019-03-26T14:11:58.142Z,10.15
2019-03-26T14:18:05.014Z,10.03
2019-03-26T14:24:13.321Z,10.09
2019-03-26T14:30:35.259Z,10.06
2019-03-26T14:36:42.057Z,9.81
2019-03-26T14:42:48.855Z,9.71
2019-03-26T14:48:55.455Z,9.76
2019-03-26T14:55:02.553Z,9.90
2019-03-26T15:01:09.264Z,10.15
2019-03-26T15:07:16.079Z,10.33
2019-03-26T15:13:22.663Z,10.30
2019-03-26T15:19:29.245Z,10.26
2019-03-26T15:25:35.914Z,10.23
2019-03-26T15:31:42.556Z,10.31
2019-03-26T15:37:49.152Z,10.29
2019-03-26T15:43:55.773Z,10.29
2019-03-26T15:50:02.412Z,10.44
2019-03-26T15:56:09.311Z,10.43
2019-03-26T16:02:16.019Z,10.35
2019-03-26T16:08:22.591Z,10.33
2019-03-26T16:14:29.293Z,10.24
2019-03-26T16:20:35.907Z,10.24
2019-03-26T16:26:42.458Z,10.19
2019-03-26T16:32:49.079Z,10.14
2019-03-26T16:38:55.702Z,10.19
2019-03-26T16:45:02.237Z,10.19
2019-03-26T16:51:09.776Z,10.19
2019-03-26T16:57:17.767Z,10.20
2019-03-26T17:03:31.133Z,10.17
2019-03-26T17:09:33.061Z,10.26
2019-03-26T17:15:39.775Z,10.31
2019-03-26T17:21:46.407Z,10.23
2019-03-26T17:27:53.080Z,10.19
2019-03-26T17:33:59.772Z,10.19
2019-03-26T17:40:06.806Z,10.23
2019-03-26T17:46:13.560Z,10.24
2019-03-26T17:52:22.617Z,10.27
2019-03-26T17:58:29.780Z,10.28
2019-03-26T18:04:37.000Z,10.30
2019-03-26T18:10:43.682Z,10.26
2019-03-26T18:16:50.503Z,10.25
2019-03-26T18:22:57.301Z,10.22
2019-03-26T18:29:03.958Z,10.25
2019-03-26T18:35:10.743Z,10.25
2019-03-26T18:41:17.308Z,10.27
2019-03-26T18:47:23.996Z,10.25
2019-03-26T18:53:32.946Z,10.25
2019-03-26T18:59:39.510Z,10.25
2019-03-26T19:05:46.053Z,10.24
2019-03-26T19:11:52.799Z,10.04
2019-03-26T19:18:07.411Z,9.82
2019-03-26T19:24:13.997Z,9.93
2019-03-26T19:30:20.559Z,10.02
2019-03-26T19:36:27.203Z,10.02
2019-03-26T19:42:33.890Z,10.05
2019-03-26T19:48:40.480Z,10.00
2019-03-26T19:54:47.084Z,9.97
2019-03-26T20:00:53.844Z,9.88
2019-03-26T20:07:00.435Z,9.86
2019-03-26T20:13:07.293Z,9.86
2019-03-26T20:19:14.473Z,9.85
2019-03-26T20:25:21.197Z,9.84
2019-03-26T20:31:27.896Z,9.86
2019-03-26T20:37:34.552Z,9.82
2019-03-26T20:43:43.536Z,9.81
2019-03-26T20:49:50.303Z,9.84
2019-03-26T20:55:56.933Z,9.78
2019-03-26T21:02:03.494Z,9.81
2019-03-26T21:08:10.124Z,9.74
2019-03-26T21:14:16.804Z,9.73
2019-03-26T21:20:23.512Z,9.73
2019-03-26T21:26:30.156Z,9.69
2019-03-26T21:32:36.734Z,9.70
2019-03-26T21:38:43.414Z,9.68
2019-03-26T21:44:50.071Z,9.75
2019-03-26T21:50:56.633Z,9.75
2019-03-26T21:57:03.358Z,9.68
2019-03-26T22:03:10.071Z,9.65
2019-03-26T22:09:16.621Z,9.66
2019-03-26T22:15:23.314Z,9.67
2019-03-26T22:21:29.823Z,9.67
2019-03-26T22:27:36.372Z,9.68
2019-03-26T22:33:42.935Z,9.64
2019-03-26T22:39:49.494Z,9.57
2019-03-26T22:45:56.070Z,9.56
2019-03-26T22:52:02.659Z,9.51
2019-03-26T22:58:09.196Z,9.45
2019-03-26T23:04:15.790Z,9.35
2019-03-26T23:10:22.603Z,9.23
2019-03-26T23:16:29.312Z,9.09
2019-03-26T23:22:36.002Z,9.00
2019-03-26T23:28:42.973Z,8.65
2019-03-26T23:34:50.969Z,8.34
2019-03-26T23:40:57.897Z,8.36
